createdAt,value
2018-02-20T00:01:24.528Z,37.65
2018-02-20T00:03:53.464Z,39.50
2018-02-20T00:06:21.492Z,39.17
2018-02-20T00:08:49.520Z,46.20
2018-02-20T00:11:18.440Z,39.40
2018-02-20T00:13:46.465Z,43.08
2018-02-20T00:16:14.516Z,41.20
2018-02-20T00:18:43.316Z,41.40
2018-02-20T00:21:17.860Z,45.03
2018-02-20T00:23:51.696Z,41.63
2018-02-20T00:26:20.716Z,47.28
2018-02-20T00:28:49.713Z,40.60
2018-02-20T00:31:18.632Z,43.25
2018-02-20T00:33:48.592Z,43.03
2018-02-20T00:36:19.892Z,42.67
2018-02-20T00:38:52.652Z,37.83
2018-02-20T00:41:22.577Z,36.05
2018-02-20T00:44:02.625Z,41.75
2018-02-20T00:46:32.304Z,35.05
2018-02-20T00:49:00.324Z,36.38
2018-02-20T00:51:30.297Z,37.78
2018-02-20T00:54:00.323Z,37.08
2018-02-20T00:56:31.028Z,40.20
2018-02-20T00:58:59.056Z,41.42
2018-02-20T01:01:29.028Z,38.42
2018-02-20T01:03:58.024Z,40.70
2018-02-20T01:06:26.076Z,36.83
2018-02-20T01:08:54.098Z,37.30
2018-02-20T01:11:24.061Z,40.95
2018-02-20T01:13:53.058Z,36.03
2018-02-20T01:16:23.108Z,38.20
2018-02-20T01:18:51.924Z,36.33
2018-02-20T01:21:19.940Z,34.35
2018-02-20T01:23:51.076Z,32.35
2018-02-20T01:26:19.112Z,40.00
2018-02-20T01:28:51.555Z,32.67
2018-02-20T01:31:19.599Z,36.30
2018-02-20T01:33:47.624Z,36.70
2018-02-20T01:36:15.652Z,36.42
2018-02-20T01:38:47.908Z,35.08
2018-02-20T01:41:15.928Z,30.40
2018-02-20T01:43:43.960Z,40.00
2018-02-20T01:46:16.548Z,34.85
2018-02-20T01:48:44.587Z,36.38
2018-02-20T01:51:12.617Z,33.22
2018-02-20T01:53:51.843Z,39.95
2018-02-20T01:56:19.900Z,39.80
2018-02-20T01:58:47.927Z,35.03
2018-02-20T02:01:16.948Z,40.25
2018-02-20T02:03:51.243Z,36.97
2018-02-20T02:06:21.268Z,37.40
2018-02-20T02:08:49.299Z,32.50
2018-02-20T02:11:17.347Z,39.03
2018-02-20T02:13:45.936Z,35.38
2018-02-20T02:16:14.732Z,41.72
2018-02-20T02:18:43.775Z,35.78
2018-02-20T02:21:14.512Z,38.78
2018-02-20T02:23:43.335Z,45.17
2018-02-20T02:26:12.256Z,39.63
2018-02-20T02:28:40.279Z,41.17
2018-02-20T02:31:08.308Z,43.55
2018-02-20T02:36:34.544Z,44.15
2018-02-20T02:39:03.585Z,38.60
2018-02-20T02:41:32.531Z,41.83
2018-02-20T02:44:01.545Z,52.08
2018-02-20T02:46:30.342Z,47.22
2018-02-20T02:49:00.332Z,46.80
2018-02-20T02:51:32.064Z,47.30
2018-02-20T02:54:00.104Z,52.38
2018-02-20T02:56:28.127Z,54.20
2018-02-20T02:58:57.116Z,56.28
2018-02-20T03:01:25.147Z,58.78
2018-02-20T03:03:54.212Z,50.25
2018-02-20T03:06:30.935Z,53.40
2018-02-20T03:08:58.980Z,63.10
2018-02-20T03:11:26.991Z,54.78
2018-02-20T03:14:00.595Z,47.30
2018-02-20T03:16:29.591Z,55.58
2018-02-20T03:18:57.615Z,47.28
2018-02-20T03:21:25.667Z,51.83
2018-02-20T03:23:58.535Z,52.10
2018-02-20T03:26:27.335Z,59.80
2018-02-20T03:28:55.375Z,54.45
2018-02-20T03:31:27.132Z,47.33
2018-02-20T03:33:55.142Z,55.70
2018-02-20T03:36:28.839Z,54.95
2018-02-20T03:39:00.643Z,50.67
2018-02-20T03:41:32.130Z,52.72
2018-02-20T03:44:04.903Z,47.42
2018-02-20T03:46:32.972Z,53.03
2018-02-20T03:49:02.991Z,49.17
2018-02-20T03:51:31.035Z,52.13
2018-02-20T03:54:07.167Z,55.30
2018-02-20T03:56:36.190Z,57.90
2018-02-20T03:59:04.223Z,52.85
2018-02-20T04:01:35.935Z,60.53
2018-02-20T04:04:04.923Z,54.97
2018-02-20T04:06:32.942Z,56.97
2018-02-20T04:09:02.023Z,55.17
2018-02-20T04:11:31.990Z,50.15
2018-02-20T04:14:00.031Z,62.35
2018-02-20T04:16:28.855Z,54.85
2018-02-20T04:18:57.839Z,45.65
2018-02-20T04:21:31.673Z,49.88
2018-02-20T04:24:06.687Z,54.78
2018-02-20T04:26:34.690Z,49.65
2018-02-20T04:29:02.740Z,56.95
2018-02-20T04:31:33.546Z,51.33
2018-02-20T04:34:06.339Z,54.97
2018-02-20T04:36:36.375Z,54.35
2018-02-20T04:39:07.141Z,53.95
2018-02-20T04:41:36.087Z,52.60
2018-02-20T04:44:04.114Z,56.22
2018-02-20T04:46:32.143Z,47.80
2018-02-20T04:49:05.329Z,52.25
2018-02-20T04:51:34.926Z,50.53
2018-02-20T04:54:04.930Z,50.95
2018-02-20T04:56:34.679Z,58.20
2018-02-20T04:59:02.719Z,54.83
2018-02-20T05:01:30.783Z,53.67
2018-02-20T05:04:08.858Z,53.60
2018-02-20T05:06:42.555Z,51.35
2018-02-20T05:09:24.307Z,54.05
2018-02-20T05:11:54.091Z,53.28
2018-02-20T05:14:32.146Z,56.30
2018-02-20T05:17:07.834Z,62.25
2018-02-20T05:19:39.091Z,53.47
2018-02-20T05:22:08.122Z,55.45
2018-02-20T05:24:40.642Z,53.67
2018-02-20T05:27:15.178Z,52.50
2018-02-20T05:29:47.639Z,59.33
2018-02-20T05:32:19.303Z,61.45
2018-02-20T05:34:49.311Z,55.95
2018-02-20T05:37:28.126Z,56.17
2018-02-20T05:39:56.142Z,59.80
2018-02-20T05:42:30.662Z,61.97
2018-02-20T05:45:00.444Z,54.88
2018-02-20T05:47:32.100Z,59.15
2018-02-20T05:50:10.686Z,52.33
2018-02-20T05:52:44.202Z,59.03
2018-02-20T05:55:17.194Z,68.85
2018-02-20T05:57:47.225Z,55.60
2018-02-20T06:00:17.354Z,56.55
2018-02-20T06:02:46.323Z,56.42
2018-02-20T06:05:21.718Z,67.93
2018-02-20T06:07:50.655Z,63.13
2018-02-20T06:10:23.256Z,56.28
2018-02-20T06:12:55.003Z,55.28
2018-02-20T06:15:31.510Z,54.60
2018-02-20T06:21:07.818Z,60.35
2018-02-20T06:23:38.886Z,60.85
2018-02-20T06:26:08.887Z,55.50
2018-02-20T06:28:38.826Z,61.37
2018-02-20T06:31:30.382Z,68.95
2018-02-20T06:33:59.314Z,63.90
2018-02-20T06:36:27.323Z,63.67
2018-02-20T06:38:57.110Z,56.67
2018-02-20T06:41:25.127Z,63.85
2018-02-20T06:43:55.031Z,54.90
2018-02-20T06:46:24.215Z,57.30
2018-02-20T06:48:55.003Z,58.95
2018-02-20T06:51:30.834Z,63.30
2018-02-20T06:53:58.858Z,62.88
2018-02-20T06:56:27.815Z,53.80
2018-02-20T06:58:55.834Z,67.60
2018-02-20T07:01:30.402Z,67.53
2018-02-20T07:03:58.418Z,56.33
2018-02-20T07:06:29.154Z,56.05
2018-02-20T07:08:57.930Z,60.70
2018-02-20T07:11:44.982Z,59.15
2018-02-20T07:14:17.482Z,58.50
2018-02-20T07:17:04.786Z,61.58
2018-02-20T07:19:34.722Z,54.33
2018-02-20T07:22:05.986Z,62.35
2018-02-20T07:24:33.997Z,56.60
2018-02-20T07:27:03.970Z,55.63
2018-02-20T07:29:31.994Z,58.95
2018-02-20T07:32:00.001Z,52.28
2018-02-20T07:34:30.242Z,58.38
2018-02-20T07:36:59.170Z,60.03
2018-02-20T07:39:28.102Z,55.15
2018-02-20T07:41:59.859Z,57.47
2018-02-20T07:44:31.619Z,59.55
2018-02-20T07:47:09.322Z,62.17
2018-02-20T07:49:43.734Z,54.80
2018-02-20T07:52:12.722Z,48.00
2018-02-20T07:54:44.185Z,54.25
2018-02-20T07:57:12.202Z,53.25
2018-02-20T07:59:40.213Z,55.65
2018-02-20T08:02:08.230Z,54.58
2018-02-20T08:04:37.010Z,55.60
2018-02-20T08:07:22.690Z,50.92
2018-02-20T08:09:52.482Z,50.92
2018-02-20T08:12:20.498Z,51.97
2018-02-20T08:14:55.659Z,55.35
2018-02-20T08:17:24.569Z,54.20
2018-02-20T08:19:52.578Z,50.33
2018-02-20T08:22:22.049Z,54.75
2018-02-20T08:25:05.059Z,57.17
2018-02-20T08:27:37.422Z,50.17
2018-02-20T08:30:06.374Z,53.35
2018-02-20T08:32:36.373Z,52.50
2018-02-20T08:35:12.565Z,51.33
2018-02-20T08:37:40.597Z,50.42
2018-02-20T08:40:23.145Z,48.33
2018-02-20T08:42:54.430Z,52.10
2018-02-20T08:45:22.443Z,54.80
2018-02-20T08:47:50.453Z,48.70
2018-02-20T08:50:31.117Z,53.80
2018-02-20T08:52:59.130Z,52.92
2018-02-20T08:55:31.218Z,52.22
2018-02-20T08:57:59.225Z,56.03
2018-02-20T09:00:27.257Z,51.60
2018-02-20T09:02:55.265Z,53.13
2018-02-20T09:05:23.269Z,53.83
2018-02-20T09:07:52.054Z,50.30
2018-02-20T09:10:29.806Z,46.97
2018-02-20T09:13:02.393Z,44.42
2018-02-20T09:15:31.294Z,53.90
2018-02-20T09:18:01.102Z,51.20
2018-02-20T09:20:29.117Z,45.00
2018-02-20T09:22:57.133Z,51.33
2018-02-20T09:25:30.645Z,45.60
2018-02-20T09:28:15.849Z,56.47
2018-02-20T09:30:45.593Z,46.50
2018-02-20T09:33:15.498Z,51.13
2018-02-20T09:35:43.505Z,47.42
2018-02-20T09:38:17.162Z,50.97
2018-02-20T09:40:45.190Z,51.13
2018-02-20T09:43:13.182Z,42.92
2018-02-20T09:45:41.957Z,48.55
2018-02-20T09:48:29.802Z,49.22
2018-02-20T09:50:59.568Z,55.50
2018-02-20T09:53:27.571Z,47.15
2018-02-20T09:55:56.353Z,47.58
2018-02-20T09:58:36.113Z,44.10
2018-02-20T10:01:04.890Z,46.70
2018-02-20T10:03:39.861Z,45.10
2018-02-20T10:06:07.861Z,53.03
2018-02-20T10:08:50.273Z,42.05
2018-02-20T10:11:19.082Z,42.42
2018-02-20T10:13:48.985Z,44.00
2018-02-20T10:16:17.043Z,42.85
2018-02-20T10:18:51.854Z,47.17
2018-02-20T10:21:19.865Z,47.35
2018-02-20T10:23:48.833Z,52.20
2018-02-20T10:26:17.741Z,48.67
2018-02-20T10:28:52.969Z,48.58
2018-02-20T10:31:24.393Z,46.30
2018-02-20T10:33:53.309Z,42.42
2018-02-20T10:36:29.663Z,43.45
2018-02-20T10:38:59.569Z,46.15
2018-02-20T10:41:30.641Z,48.42
2018-02-20T10:44:05.636Z,43.45
2018-02-20T10:46:37.217Z,52.03
2018-02-20T10:49:09.985Z,49.72
2018-02-20T10:51:38.019Z,45.88
2018-02-20T10:54:09.621Z,49.30
2018-02-20T10:56:38.536Z,44.95
2018-02-20T10:59:09.253Z,45.15
2018-02-20T11:01:37.262Z,55.40
2018-02-20T11:04:05.265Z,45.10
2018-02-20T11:06:34.245Z,48.58
2018-02-20T11:09:04.205Z,44.95
2018-02-20T11:11:32.241Z,39.47
2018-02-20T11:14:00.253Z,46.45
2018-02-20T11:16:29.057Z,43.38
2018-02-20T11:18:57.073Z,48.33
2018-02-20T11:21:25.081Z,42.35
2018-02-20T11:23:58.029Z,42.13
2018-02-20T11:26:29.685Z,39.80
2018-02-20T11:28:57.709Z,45.40
2018-02-20T11:31:25.717Z,47.50
2018-02-20T11:33:53.726Z,44.03
2018-02-20T11:36:28.689Z,46.47
2018-02-20T11:38:56.688Z,44.15
2018-02-20T11:41:24.700Z,51.75
2018-02-20T11:43:53.481Z,44.35
2018-02-20T11:46:22.253Z,47.38
2018-02-20T11:48:50.269Z,44.58
2018-02-20T11:51:18.285Z,44.75
2018-02-20T11:53:46.293Z,39.13
2018-02-20T11:56:14.312Z,40.35
2018-02-20T11:58:42.341Z,39.55
2018-02-20T12:01:10.385Z,41.70
2018-02-20T12:03:38.381Z,41.00
2018-02-20T12:06:06.389Z,39.78
2018-02-20T12:08:34.401Z,39.30
2018-02-20T12:11:03.189Z,37.78
2018-02-20T12:13:31.985Z,41.05
2018-02-20T12:16:00.652Z,38.13
2018-02-20T12:18:29.357Z,38.55
2018-02-20T12:20:57.369Z,34.72
2018-02-20T12:23:27.297Z,43.47
2018-02-20T12:25:56.289Z,33.80
2018-02-20T12:28:24.321Z,32.65
2018-02-20T12:30:52.337Z,39.42
2018-02-20T12:33:21.320Z,36.05
2018-02-20T12:35:50.078Z,37.28
2018-02-20T12:38:18.109Z,39.83
2018-02-20T12:40:47.560Z,38.03
2018-02-20T12:43:15.577Z,36.00
2018-02-20T12:45:44.380Z,44.33
2018-02-20T12:48:13.327Z,37.22
2018-02-20T12:50:43.365Z,37.67
2018-02-20T12:53:12.156Z,35.28
2018-02-20T12:55:41.936Z,38.95
2018-02-20T12:58:10.932Z,36.90
2018-02-20T13:00:44.621Z,38.35
2018-02-20T13:03:13.621Z,36.88
2018-02-20T13:05:42.539Z,36.10
2018-02-20T13:08:21.913Z,36.05
2018-02-20T13:10:51.864Z,37.05
2018-02-20T13:13:19.885Z,42.70
2018-02-20T13:15:47.917Z,38.90
2018-02-20T13:18:27.308Z,35.33
2018-02-20T13:20:57.252Z,34.40
2018-02-20T13:23:28.905Z,34.63
2018-02-20T13:25:57.831Z,40.28
2018-02-20T13:28:32.529Z,33.53
2018-02-20T13:31:06.352Z,35.05
2018-02-20T13:33:34.745Z,34.45
2018-02-20T13:36:03.533Z,29.87
2018-02-20T13:38:38.532Z,37.15
2018-02-20T13:41:09.780Z,30.02
2018-02-20T13:43:37.813Z,32.03
2018-02-20T13:46:05.829Z,32.45
2018-02-20T13:48:41.269Z,29.70
2018-02-20T13:51:09.287Z,34.33
2018-02-20T13:53:37.300Z,34.83
2018-02-20T13:56:05.308Z,39.92
2018-02-20T13:58:36.396Z,32.42
2018-02-20T14:01:05.305Z,35.50
2018-02-20T14:03:33.326Z,39.15
2018-02-20T14:06:02.234Z,35.17
2018-02-20T14:08:30.256Z,35.03
2018-02-20T14:11:03.948Z,33.17
2018-02-20T14:13:31.968Z,34.80
2018-02-20T14:16:02.736Z,33.13
2018-02-20T14:18:31.727Z,30.83
2018-02-20T14:21:11.316Z,33.83
2018-02-20T14:23:41.372Z,32.38
2018-02-20T14:26:09.413Z,32.03
2018-02-20T14:28:37.457Z,31.17
2018-02-20T14:31:11.216Z,35.47
2018-02-20T14:33:43.933Z,31.37
2018-02-20T14:36:13.728Z,22.90
2018-02-20T14:38:43.745Z,31.73
2018-02-20T14:41:13.668Z,30.30
2018-02-20T14:43:49.065Z,30.60
2018-02-20T14:46:17.084Z,29.73
2018-02-20T14:48:47.101Z,24.73
2018-02-20T14:51:15.889Z,28.50
2018-02-20T14:53:44.658Z,31.27
2018-02-20T14:56:16.405Z,33.00
2018-02-20T14:58:45.395Z,27.48
2018-02-20T15:01:16.909Z,30.05
2018-02-20T15:03:44.925Z,28.00
2018-02-20T15:06:15.572Z,25.88
2018-02-20T15:08:43.665Z,27.08
2018-02-20T15:11:18.940Z,25.75
2018-02-20T15:13:54.848Z,24.58
2018-02-20T15:16:24.644Z,22.75
2018-02-20T15:19:09.957Z,24.02
2018-02-20T15:21:37.968Z,23.23
2018-02-20T15:24:05.984Z,22.80
2018-02-20T15:26:33.993Z,20.52
2018-02-20T15:29:10.565Z,22.98
2018-02-20T15:31:42.533Z,24.80
2018-02-20T15:34:21.432Z,24.37
2018-02-20T15:36:50.220Z,24.08
2018-02-20T15:39:28.536Z,27.42
2018-02-20T15:41:56.553Z,22.08
2018-02-20T15:44:28.477Z,32.80
2018-02-20T15:47:02.908Z,36.80
2018-02-20T15:49:35.077Z,37.17
2018-02-20T15:52:06.333Z,36.90
2018-02-20T15:54:39.624Z,40.85
2018-02-20T15:57:22.477Z,37.58
2018-02-20T15:59:51.257Z,43.75
2018-02-20T16:02:21.984Z,38.63
2018-02-20T16:04:50.944Z,33.95
2018-02-20T16:07:23.541Z,34.60
2018-02-20T16:09:51.577Z,38.15
2018-02-20T16:12:28.472Z,35.55
2018-02-20T16:14:56.532Z,42.83
2018-02-20T16:17:27.612Z,44.80
2018-02-20T16:19:57.308Z,39.42
2018-02-20T16:22:26.220Z,39.67
2018-02-20T16:24:55.920Z,34.70
2018-02-20T16:27:26.641Z,46.75
2018-02-20T16:29:56.644Z,36.38
2018-02-20T16:32:25.640Z,37.78
2018-02-20T16:35:04.548Z,38.85
2018-02-20T16:37:36.336Z,38.85
2018-02-20T16:40:04.556Z,38.28
2018-02-20T16:42:32.576Z,35.60
2018-02-20T16:45:10.948Z,36.50
2018-02-20T16:47:38.980Z,36.38
2018-02-20T16:50:08.744Z,36.72
2018-02-20T16:52:43.339Z,37.70
2018-02-20T16:55:11.358Z,39.70
2018-02-20T16:57:39.384Z,43.30
2018-02-20T17:00:07.388Z,34.08
2018-02-20T17:02:37.256Z,41.15
2018-02-20T17:05:15.480Z,42.95
2018-02-20T17:07:44.492Z,45.58
2018-02-20T17:10:12.531Z,35.83
2018-02-20T17:13:04.140Z,38.05
2018-02-20T17:15:32.260Z,55.97
2018-02-20T17:18:03.918Z,40.15
2018-02-20T17:20:32.928Z,34.00
2018-02-20T17:23:00.935Z,38.90
2018-02-20T17:25:28.959Z,37.13
2018-02-20T17:28:00.307Z,41.37
2018-02-20T17:30:28.327Z,42.92
2018-02-20T17:32:59.924Z,40.38
2018-02-20T17:35:27.948Z,46.25
2018-02-20T17:38:00.787Z,42.03
2018-02-20T17:40:28.012Z,44.13
2018-02-20T17:42:59.688Z,44.83
2018-02-20T17:45:27.751Z,38.83
2018-02-20T17:47:56.736Z,44.85
2018-02-20T17:50:28.307Z,45.47
2018-02-20T17:52:56.319Z,47.58
2018-02-20T17:55:29.307Z,42.50
2018-02-20T17:57:57.324Z,47.97
2018-02-20T18:00:28.672Z,50.78
2018-02-20T18:03:00.328Z,43.85
2018-02-20T18:05:28.396Z,47.72
2018-02-20T18:07:58.355Z,44.28
2018-02-20T18:10:37.871Z,54.90
2018-02-20T18:13:10.139Z,46.42
2018-02-20T18:15:38.931Z,42.40
2018-02-20T18:18:07.716Z,46.17
2018-02-20T18:20:36.671Z,45.95
2018-02-20T18:23:05.595Z,50.17
2018-02-20T18:25:35.652Z,53.33
2018-02-20T18:28:03.674Z,55.88
2018-02-20T18:30:31.730Z,49.20
2018-02-20T18:33:11.995Z,50.12
2018-02-20T18:35:40.011Z,45.33
2018-02-20T18:38:09.951Z,44.00
2018-02-20T18:40:38.007Z,48.40
2018-02-20T18:43:07.939Z,40.78
2018-02-20T18:45:40.883Z,56.03
2018-02-20T18:48:12.587Z,47.30
2018-02-20T18:50:44.243Z,43.63
2018-02-20T18:53:13.383Z,52.58
2018-02-20T18:55:43.531Z,45.92
2018-02-20T18:58:11.542Z,56.78
2018-02-20T19:00:41.619Z,53.75
2018-02-20T19:03:11.563Z,50.72
2018-02-20T19:05:40.546Z,46.08
2018-02-20T19:08:08.559Z,55.10
2018-02-20T19:10:38.235Z,50.35
2018-02-20T19:13:09.319Z,49.03
2018-02-20T19:15:38.266Z,46.55
2018-02-20T19:18:14.255Z,55.80
2018-02-20T19:20:50.075Z,49.28
2018-02-20T19:23:26.066Z,51.13
2018-02-20T19:25:54.039Z,48.10
2018-02-20T19:28:28.627Z,47.80
2018-02-20T19:30:56.887Z,52.10
2018-02-20T19:33:32.623Z,49.92
2018-02-20T19:36:15.803Z,52.67
2018-02-20T19:38:44.608Z,58.00
2018-02-20T19:41:14.563Z,49.53
2018-02-20T19:43:48.631Z,49.80
2018-02-20T19:46:16.647Z,56.08
2018-02-20T19:48:45.663Z,54.38
2018-02-20T19:51:18.227Z,57.38
2018-02-20T19:53:49.430Z,59.67
2018-02-20T19:56:18.355Z,50.10
2018-02-20T19:58:52.710Z,52.38
2018-02-20T20:01:22.379Z,50.80
2018-02-20T20:03:50.417Z,51.83
2018-02-20T20:06:20.338Z,49.97
2018-02-20T20:08:54.795Z,66.03
2018-02-20T20:11:32.769Z,50.92
2018-02-20T20:14:03.847Z,48.25
2018-02-20T20:16:34.786Z,61.67
2018-02-20T20:19:02.817Z,60.40
2018-02-20T20:21:30.841Z,58.05
2018-02-20T20:23:58.877Z,52.25
2018-02-20T20:26:27.147Z,53.72
2018-02-20T20:28:55.171Z,46.92
2018-02-20T20:31:27.705Z,56.78
2018-02-20T20:33:56.695Z,53.63
2018-02-20T20:36:25.707Z,54.20
2018-02-20T20:38:53.744Z,53.28
2018-02-20T20:41:21.751Z,52.20
2018-02-20T20:43:49.779Z,54.70
2018-02-20T20:46:18.807Z,54.35
2018-02-20T20:48:46.831Z,59.65
2018-02-20T20:51:14.875Z,56.25
2018-02-20T20:53:43.807Z,61.63
2018-02-20T20:56:13.891Z,56.40
2018-02-20T20:58:42.794Z,58.55
2018-02-20T21:01:12.740Z,63.42
2018-02-20T21:03:45.311Z,54.15
2018-02-20T21:06:14.312Z,60.95
2018-02-20T21:08:43.342Z,59.85
2018-02-20T21:11:13.238Z,68.47
2018-02-20T21:13:43.967Z,62.20
2018-02-20T21:16:12.808Z,72.90
2018-02-20T21:18:40.830Z,72.97
2018-02-20T21:21:13.575Z,64.47
2018-02-20T21:23:41.619Z,61.33
2018-02-20T21:26:12.419Z,71.20
2018-02-20T21:28:47.631Z,65.97
2018-02-20T21:31:16.542Z,69.00
2018-02-20T21:33:49.510Z,63.50
2018-02-20T21:36:18.487Z,71.65
2018-02-20T21:38:46.567Z,67.37
2018-02-20T21:41:19.067Z,60.78
2018-02-20T21:43:52.783Z,73.12
2018-02-20T21:46:22.587Z,69.28
2018-02-20T21:48:52.266Z,66.97
2018-02-20T21:51:27.083Z,76.95
2018-02-20T21:54:03.126Z,77.80
2018-02-20T21:56:32.086Z,70.78
2018-02-20T21:59:00.149Z,80.80
2018-02-20T22:01:46.134Z,64.40
2018-02-20T22:04:15.922Z,64.87
2018-02-20T22:06:44.007Z,58.30
2018-02-20T22:09:14.003Z,74.43
2018-02-20T22:11:43.015Z,73.45
2018-02-20T22:14:13.719Z,66.65
2018-02-20T22:16:52.778Z,73.65
2018-02-20T22:19:26.566Z,84.78
2018-02-20T22:21:58.335Z,82.18
2018-02-20T22:24:28.145Z,94.13
2018-02-20T22:26:56.282Z,88.75
2018-02-20T22:29:28.186Z,82.60
2018-02-20T22:31:58.951Z,91.43
2018-02-20T22:34:28.293Z,84.60
2018-02-20T22:37:05.018Z,74.60
2018-02-20T22:39:39.810Z,73.47
2018-02-20T22:42:34.762Z,75.80
2018-02-20T22:45:05.686Z,71.62
2018-02-20T22:47:34.654Z,94.93
2018-02-20T22:50:08.462Z,84.68
2018-02-20T22:52:41.114Z,77.97
2018-02-20T22:55:09.184Z,77.07
2018-02-20T22:57:45.878Z,75.28
2018-02-20T23:00:26.274Z,80.72
2018-02-20T23:02:55.060Z,69.32
2018-02-20T23:11:36.714Z,64.82
2018-02-20T23:14:05.724Z,77.70
2018-02-20T23:16:36.466Z,80.45
2018-02-20T23:19:14.942Z,81.57
2018-02-20T23:21:47.722Z,98.15
2018-02-20T23:24:20.327Z,79.62
2018-02-20T23:27:00.811Z,84.25
2018-02-20T23:29:34.906Z,84.40
2018-02-20T23:32:08.734Z,85.35
2018-02-20T23:34:37.538Z,86.65
2018-02-20T23:37:12.150Z,84.37
2018-02-20T23:39:41.114Z,83.87
2018-02-20T23:42:14.627Z,84.13
2018-02-20T23:44:47.389Z,85.57
2018-02-20T23:47:20.486Z,73.55
2018-02-20T23:49:52.349Z,84.28
2018-02-20T23:52:22.402Z,84.57
2018-02-20T23:54:51.355Z,81.07
2018-02-20T23:57:23.042Z,99.15
2018-02-20T23:59:55.809Z,95.30
